createdAt,value
2022-08-17T00:00:54.815Z,16.06
2022-08-17T00:01:58.080Z,13.05
2022-08-17T00:03:10.398Z,13.22
2022-08-17T00:04:12.943Z,10.76
2022-08-17T00:05:17.314Z,13.84
2022-08-17T00:07:33.108Z,12.17
2022-08-17T00:08:36.407Z,14.69
2022-08-17T00:09:39.037Z,15.25
2022-08-17T00:10:43.766Z,13.32
2022-08-17T00:12:41.280Z,15.34
2022-08-17T00:12:51.250Z,12.58
2022-08-17T00:13:56.315Z,13.48
2022-08-17T00:14:58.925Z,18.50
2022-08-17T00:16:02.807Z,12.79
2022-08-17T00:17:05.323Z,12.26
2022-08-17T00:19:02.139Z,11.32
2022-08-17T00:19:12.746Z,16.65
2022-08-17T00:20:17.276Z,10.37
2022-08-17T00:21:25.334Z,10.92
2022-08-17T00:22:31.502Z,12.43
2022-08-17T00:23:31.487Z,14.14
2022-08-17T00:24:35.290Z,15.12
2022-08-17T00:25:37.807Z,14.99
2022-08-17T00:26:45.092Z,9.81
2022-08-17T00:27:45.170Z,11.83
2022-08-17T00:28:47.621Z,18.31
2022-08-17T00:29:50.194Z,15.25
2022-08-17T00:30:53.815Z,14.50
2022-08-17T00:31:56.436Z,15.71
2022-08-17T00:33:15.711Z,16.95
2022-08-17T00:34:03.802Z,14.48
2022-08-17T00:35:06.986Z,14.57
2022-08-17T00:36:13.252Z,15.37
2022-08-17T00:37:15.846Z,16.59
2022-08-17T00:38:18.428Z,13.50
2022-08-17T00:39:20.974Z,14.83
2022-08-17T00:40:24.761Z,15.34
2022-08-17T00:41:27.740Z,16.42
2022-08-17T00:42:31.268Z,15.65
2022-08-17T00:44:45.953Z,17.82
2022-08-17T00:45:48.552Z,19.36
2022-08-17T00:46:51.197Z,19.73
2022-08-17T00:47:53.768Z,16.28
2022-08-17T00:48:56.234Z,16.90
2022-08-17T00:49:58.721Z,23.41
2022-08-17T00:52:15.101Z,19.01
2022-08-17T00:53:17.667Z,18.61
2022-08-17T00:54:22.105Z,18.03
2022-08-17T00:55:24.728Z,16.79
2022-08-17T00:56:31.002Z,16.11
2022-08-17T00:58:48.886Z,17.79
2022-08-17T01:00:01.997Z,18.23
2022-08-17T01:00:58.460Z,14.45
2022-08-17T01:02:01.226Z,16.69
2022-08-17T01:03:08.613Z,21.76
2022-08-17T01:04:11.197Z,13.22
2022-08-17T01:05:18.578Z,13.50
2022-08-17T01:06:23.694Z,18.89
2022-08-17T01:07:26.276Z,18.59
2022-08-17T01:08:29.074Z,21.33
2022-08-17T01:09:31.528Z,20.36
2022-08-17T01:10:59.610Z,15.69
2022-08-17T01:11:41.391Z,21.54
2022-08-17T01:12:43.857Z,15.62
2022-08-17T01:13:46.421Z,13.52
2022-08-17T01:14:49.004Z,18.08
2022-08-17T01:15:52.810Z,14.19
2022-08-17T01:16:55.490Z,15.94
2022-08-17T01:17:58.144Z,14.87
2022-08-17T01:19:01.820Z,17.17
2022-08-17T01:20:04.751Z,18.11
2022-08-17T01:21:09.216Z,14.36
2022-08-17T01:22:13.653Z,20.12
2022-08-17T01:23:20.509Z,16.19
2022-08-17T01:24:21.060Z,15.56
2022-08-17T01:25:23.609Z,16.98
2022-08-17T01:26:26.946Z,17.59
2022-08-17T01:27:29.521Z,17.76
2022-08-17T01:28:52.258Z,15.82
2022-08-17T01:29:38.120Z,15.08
2022-08-17T01:30:58.000Z,17.82
2022-08-17T01:31:46.828Z,15.64
2022-08-17T01:32:49.527Z,15.26
2022-08-17T01:33:52.066Z,16.89
2022-08-17T01:34:54.729Z,16.70
2022-08-17T01:35:57.422Z,15.23
2022-08-17T01:37:00.401Z,10.72
2022-08-17T01:38:03.547Z,12.94
2022-08-17T01:39:06.590Z,13.69
2022-08-17T01:40:17.490Z,15.18
2022-08-17T01:41:20.195Z,13.05
2022-08-17T01:42:26.765Z,12.37
2022-08-17T01:43:32.793Z,14.98
2022-08-17T01:44:35.382Z,13.95
2022-08-17T01:45:43.662Z,12.32
2022-08-17T01:46:46.496Z,18.37
2022-08-17T01:47:49.601Z,16.59
2022-08-17T01:48:52.146Z,16.17
2022-08-17T01:49:54.709Z,13.65
2022-08-17T01:50:57.633Z,15.29
2022-08-17T01:52:02.076Z,14.05
2022-08-17T01:53:06.058Z,15.72
2022-08-17T01:54:10.531Z,18.34
2022-08-17T01:55:13.429Z,13.14
2022-08-17T01:56:18.040Z,18.65
2022-08-17T01:57:20.614Z,14.06
2022-08-17T01:58:23.141Z,15.83
2022-08-17T01:59:25.694Z,17.74
2022-08-17T02:00:28.380Z,19.69
2022-08-17T02:01:33.104Z,16.91
2022-08-17T02:02:35.636Z,16.87
2022-08-17T02:03:38.204Z,18.95
2022-08-17T02:04:40.769Z,16.69
2022-08-17T02:05:43.231Z,15.68
2022-08-17T02:06:53.364Z,16.32
2022-08-17T02:08:00.190Z,19.09
2022-08-17T02:09:02.554Z,15.74
2022-08-17T02:09:59.584Z,14.92
2022-08-17T02:12:47.459Z,15.16
2022-08-17T02:13:18.415Z,18.11
2022-08-17T02:14:20.983Z,14.37
2022-08-17T02:15:23.651Z,13.89
2022-08-17T02:16:26.586Z,16.23
2022-08-17T02:17:30.967Z,19.98
2022-08-17T02:18:33.522Z,15.75
2022-08-17T02:19:35.986Z,17.27
2022-08-17T02:20:42.413Z,15.81
2022-08-17T02:21:44.551Z,16.25
2022-08-17T02:22:47.126Z,14.93
2022-08-17T02:23:49.690Z,17.60
2022-08-17T02:24:59.674Z,21.63
2022-08-17T02:25:57.381Z,17.32
2022-08-17T02:27:00.055Z,17.15
2022-08-17T02:28:03.313Z,14.46
2022-08-17T02:29:05.757Z,16.79
2022-08-17T02:31:01.301Z,16.84
2022-08-17T02:31:14.061Z,15.16
2022-08-17T02:33:41.607Z,16.04
2022-08-17T02:34:34.495Z,15.36
2022-08-17T02:35:37.260Z,18.07
2022-08-17T02:36:40.022Z,13.87
2022-08-17T02:37:42.482Z,17.56
2022-08-17T02:38:45.072Z,18.29
2022-08-17T02:39:47.554Z,20.32
2022-08-17T02:40:50.378Z,14.66
2022-08-17T02:41:54.840Z,15.09
2022-08-17T02:42:57.731Z,14.69
2022-08-17T02:44:02.277Z,14.28
2022-08-17T02:45:06.468Z,14.80
2022-08-17T02:46:09.672Z,13.47
2022-08-17T02:47:12.241Z,12.26
2022-08-17T02:48:14.698Z,13.64
2022-08-17T02:49:19.095Z,13.84
2022-08-17T02:50:22.829Z,14.71
2022-08-17T02:51:25.486Z,15.60
2022-08-17T02:52:42.778Z,14.76
2022-08-17T02:53:35.880Z,14.96
2022-08-17T02:54:41.583Z,17.36
2022-08-17T02:55:42.781Z,15.41
2022-08-17T02:56:45.425Z,13.41
2022-08-17T02:57:47.879Z,14.88
2022-08-17T02:58:50.544Z,13.19
2022-08-17T02:59:53.139Z,13.01
2022-08-17T03:00:55.790Z,16.94
2022-08-17T03:01:59.848Z,16.42
2022-08-17T03:03:03.660Z,15.79
2022-08-17T03:04:06.345Z,14.09
2022-08-17T03:05:09.302Z,14.31
2022-08-17T03:06:13.663Z,13.33
2022-08-17T03:07:16.384Z,16.80
2022-08-17T03:08:18.864Z,13.95
2022-08-17T03:09:21.421Z,14.05
2022-08-17T03:10:25.620Z,11.95
2022-08-17T03:11:28.220Z,17.86
2022-08-17T03:13:42.504Z,17.78
2022-08-17T03:14:45.093Z,14.69
2022-08-17T03:15:47.715Z,16.04
2022-08-17T03:16:50.494Z,17.74
2022-08-17T03:17:53.541Z,16.15
2022-08-17T03:18:56.023Z,15.70
2022-08-17T03:19:58.593Z,16.09
2022-08-17T03:21:01.478Z,15.86
2022-08-17T03:22:37.392Z,15.73
2022-08-17T03:23:08.959Z,13.44
2022-08-17T03:24:12.217Z,15.00
2022-08-17T03:25:15.780Z,18.76
2022-08-17T03:27:22.061Z,15.45
2022-08-17T03:28:24.611Z,12.79
2022-08-17T03:29:27.180Z,13.87
2022-08-17T03:30:30.446Z,14.95
2022-08-17T03:31:32.955Z,15.32
2022-08-17T03:32:37.811Z,13.08
2022-08-17T03:33:40.266Z,15.19
2022-08-17T03:34:42.936Z,18.04
2022-08-17T03:35:45.525Z,15.52
2022-08-17T03:36:48.318Z,12.96
2022-08-17T03:37:56.951Z,15.57
2022-08-17T03:38:55.271Z,15.48
2022-08-17T03:39:57.788Z,16.94
2022-08-17T03:41:00.585Z,15.83
2022-08-17T03:42:06.405Z,13.88
2022-08-17T03:43:10.419Z,17.15
2022-08-17T03:44:12.865Z,12.63
2022-08-17T03:45:16.223Z,15.81
2022-08-17T03:46:34.126Z,19.31
2022-08-17T03:47:24.125Z,11.44
2022-08-17T03:48:26.697Z,15.28
2022-08-17T03:49:29.266Z,17.78
2022-08-17T03:50:33.453Z,15.25
2022-08-17T03:51:37.247Z,12.95
2022-08-17T03:52:39.801Z,15.06
2022-08-17T03:53:46.174Z,12.72
2022-08-17T03:54:48.650Z,14.68
2022-08-17T03:55:51.243Z,12.09
2022-08-17T03:56:55.897Z,14.28
2022-08-17T03:57:58.493Z,17.46
2022-08-17T03:59:01.049Z,14.49
2022-08-17T04:00:04.390Z,13.56
2022-08-17T04:01:07.164Z,14.76
2022-08-17T04:02:11.479Z,12.47
2022-08-17T04:03:14.248Z,15.29
2022-08-17T04:04:17.016Z,15.48
2022-08-17T04:05:20.023Z,13.96
2022-08-17T04:06:22.995Z,15.35
2022-08-17T04:07:26.545Z,16.58
2022-08-17T04:08:29.435Z,14.53
2022-08-17T04:09:32.119Z,14.37
2022-08-17T04:10:41.269Z,13.39
2022-08-17T04:11:39.874Z,13.37
2022-08-17T04:13:54.857Z,15.06
2022-08-17T04:14:57.516Z,13.97
2022-08-17T04:16:00.025Z,13.78
2022-08-17T04:17:03.863Z,15.73
2022-08-17T04:18:07.519Z,18.67
2022-08-17T04:19:10.350Z,15.25
2022-08-17T04:20:15.229Z,15.46
2022-08-17T04:21:18.221Z,15.23
2022-08-17T04:22:32.479Z,17.23
2022-08-17T04:23:25.697Z,14.23
2022-08-17T04:24:28.141Z,18.08
2022-08-17T04:25:31.902Z,14.45
2022-08-17T04:26:52.019Z,14.84
2022-08-17T04:27:39.599Z,14.91
2022-08-17T04:28:42.073Z,14.65
2022-08-17T04:29:49.977Z,13.42
2022-08-17T04:30:49.229Z,18.13
2022-08-17T04:31:52.203Z,16.05
2022-08-17T04:33:03.604Z,16.65
2022-08-17T04:34:01.414Z,14.46
2022-08-17T04:35:04.361Z,16.19
2022-08-17T04:36:07.530Z,13.80
2022-08-17T04:37:09.973Z,20.18
2022-08-17T04:38:13.337Z,18.11
2022-08-17T04:39:16.081Z,20.07
2022-08-17T04:40:19.267Z,14.07
2022-08-17T04:41:21.805Z,13.68
2022-08-17T04:42:24.381Z,12.19
2022-08-17T04:43:27.050Z,12.57
2022-08-17T04:44:37.559Z,14.18
2022-08-17T04:45:34.160Z,13.58
2022-08-17T04:46:37.892Z,11.39
2022-08-17T04:47:40.444Z,11.70
2022-08-17T04:48:44.022Z,13.16
2022-08-17T04:49:46.704Z,10.97
2022-08-17T04:50:51.292Z,13.91
2022-08-17T04:51:55.669Z,15.16
2022-08-17T04:52:58.536Z,12.12
2022-08-17T04:54:02.333Z,13.43
2022-08-17T04:55:05.354Z,12.56
2022-08-17T04:56:15.916Z,13.01
2022-08-17T04:57:13.967Z,17.99
2022-08-17T04:58:16.941Z,15.80
2022-08-17T04:59:20.619Z,13.01
2022-08-17T05:00:23.610Z,16.54
2022-08-17T05:01:27.320Z,11.58
2022-08-17T05:02:30.097Z,17.42
2022-08-17T05:03:32.759Z,15.28
2022-08-17T05:04:35.561Z,12.14
2022-08-17T05:05:39.382Z,12.80
2022-08-17T05:06:42.257Z,12.41
2022-08-17T05:07:44.807Z,10.19
2022-08-17T05:08:47.346Z,20.72
2022-08-17T05:09:49.822Z,11.36
2022-08-17T05:10:52.509Z,12.30
2022-08-17T05:11:55.258Z,14.66
2022-08-17T05:13:00.993Z,11.79
2022-08-17T05:14:03.714Z,10.22
2022-08-17T05:16:18.659Z,13.27
2022-08-17T05:17:21.239Z,15.22
2022-08-17T05:18:24.586Z,9.50
2022-08-17T05:19:27.338Z,12.68
2022-08-17T05:20:30.232Z,14.89
2022-08-17T05:21:32.788Z,15.35
2022-08-17T05:22:35.858Z,16.38
2022-08-17T05:23:42.386Z,16.13
2022-08-17T05:24:53.816Z,12.06
2022-08-17T05:25:49.732Z,13.81
2022-08-17T05:26:53.331Z,12.61
2022-08-17T05:27:57.723Z,12.32
2022-08-17T05:29:02.747Z,12.33
2022-08-17T05:30:06.387Z,15.78
2022-08-17T05:31:09.054Z,14.59
2022-08-17T05:32:38.059Z,14.65
2022-08-17T05:34:28.647Z,15.18
2022-08-17T05:35:31.898Z,34.37
2022-08-17T05:36:42.603Z,45.91
2022-08-17T05:37:39.015Z,37.07
2022-08-17T05:38:41.522Z,40.35
2022-08-17T05:39:44.127Z,45.28
2022-08-17T05:40:46.893Z,29.15
2022-08-17T05:41:49.682Z,35.33
2022-08-17T05:42:54.236Z,42.77
2022-08-17T05:43:56.836Z,38.01
2022-08-17T05:44:59.385Z,37.62
2022-08-17T05:46:19.109Z,36.91
2022-08-17T05:47:21.702Z,22.65
2022-08-17T05:48:35.391Z,27.05
2022-08-17T05:49:28.769Z,31.72
2022-08-17T05:50:33.330Z,26.08
2022-08-17T05:51:54.650Z,27.05
2022-08-17T05:53:05.058Z,28.38
2022-08-17T05:54:24.878Z,28.42
2022-08-17T05:56:50.435Z,35.96
2022-08-17T05:58:06.887Z,37.14
2022-08-17T05:59:14.222Z,34.77
2022-08-17T06:00:31.165Z,35.23
2022-08-17T06:02:59.476Z,24.91
2022-08-17T06:04:13.167Z,25.49
2022-08-17T06:05:34.625Z,22.54
2022-08-17T06:06:41.306Z,24.76
2022-08-17T06:07:48.809Z,19.64
2022-08-17T06:09:10.056Z,20.65
2022-08-17T06:10:34.361Z,24.72
2022-08-17T06:11:45.066Z,28.25
2022-08-17T06:13:06.121Z,26.28
2022-08-17T06:14:16.656Z,30.65
2022-08-17T06:15:21.158Z,28.72
2022-08-17T06:16:34.083Z,22.84
2022-08-17T06:17:29.253Z,27.61
2022-08-17T06:18:33.711Z,24.61
2022-08-17T06:20:49.654Z,26.17
2022-08-17T06:21:52.522Z,25.92
2022-08-17T06:22:55.881Z,20.91
2022-08-17T06:24:03.442Z,20.39
2022-08-17T06:25:10.309Z,21.79
2022-08-17T06:26:14.402Z,18.31
2022-08-17T06:27:30.802Z,13.30
2022-08-17T06:28:35.318Z,15.03
2022-08-17T06:29:39.817Z,20.21
2022-08-17T06:30:59.219Z,25.69
2022-08-17T06:31:51.737Z,18.61
2022-08-17T06:32:55.304Z,11.73
2022-08-17T06:33:59.057Z,14.15
2022-08-17T06:35:01.768Z,10.50
2022-08-17T06:36:23.250Z,14.11
2022-08-17T06:37:39.572Z,12.94
2022-08-17T06:38:49.889Z,16.18
2022-08-17T06:39:57.293Z,16.10
2022-08-17T06:42:55.078Z,16.87
2022-08-17T06:43:52.997Z,24.47
2022-08-17T06:46:30.893Z,21.43
2022-08-17T06:47:35.275Z,23.10
2022-08-17T06:49:55.524Z,19.24
2022-08-17T06:52:42.198Z,15.75
2022-08-17T06:55:01.386Z,19.04
2022-08-17T06:56:05.139Z,17.48
2022-08-17T06:57:09.481Z,15.67
2022-08-17T06:58:15.998Z,18.29
2022-08-17T06:59:17.063Z,16.94
2022-08-17T07:00:23.018Z,19.25
2022-08-17T07:01:27.603Z,21.11
2022-08-17T07:02:52.704Z,17.55
2022-08-17T07:03:38.274Z,22.77
2022-08-17T07:04:40.855Z,31.91
2022-08-17T07:05:53.153Z,22.63
2022-08-17T07:08:03.734Z,19.23
2022-08-17T07:09:10.129Z,25.67
2022-08-17T07:10:13.646Z,24.74
2022-08-17T07:11:18.094Z,28.26
2022-08-17T07:12:31.482Z,27.05
2022-08-17T07:15:01.941Z,24.00
2022-08-17T07:16:09.658Z,25.86
2022-08-17T07:18:29.957Z,20.42
2022-08-17T07:19:32.931Z,21.11
2022-08-17T07:20:35.562Z,21.41
2022-08-17T07:21:49.041Z,17.67
2022-08-17T07:22:59.338Z,18.57
2022-08-17T07:23:59.791Z,25.04
2022-08-17T07:25:03.786Z,21.31
2022-08-17T07:26:06.886Z,20.49
2022-08-17T07:27:19.849Z,20.33
2022-08-17T07:28:24.151Z,18.17
2022-08-17T07:29:26.709Z,22.72
2022-08-17T07:30:30.790Z,22.36
2022-08-17T07:31:35.082Z,17.02
2022-08-17T07:32:39.529Z,18.51
2022-08-17T07:33:45.797Z,18.54
2022-08-17T07:34:53.532Z,17.91
2022-08-17T07:35:56.198Z,17.46
2022-08-17T07:37:02.839Z,16.57
2022-08-17T07:38:25.185Z,14.59
2022-08-17T07:39:24.848Z,17.36
2022-08-17T07:40:33.059Z,16.54
2022-08-17T07:41:53.318Z,20.19
2022-08-17T07:43:05.001Z,14.97
2022-08-17T07:44:11.504Z,17.06
2022-08-17T07:45:14.116Z,19.48
2022-08-17T07:47:47.290Z,13.62
2022-08-17T07:48:51.365Z,14.27
2022-08-17T07:49:53.941Z,15.58
2022-08-17T07:50:56.626Z,13.07
2022-08-17T07:52:00.508Z,15.99
2022-08-17T07:54:18.538Z,10.79
2022-08-17T07:55:24.811Z,17.82
2022-08-17T07:57:40.938Z,14.09
2022-08-17T07:58:43.388Z,16.34
2022-08-17T07:59:47.835Z,12.95
2022-08-17T08:02:21.443Z,12.16
2022-08-17T08:03:26.011Z,14.51
2022-08-17T08:07:01.118Z,10.31
2022-08-17T08:08:05.327Z,12.94
2022-08-17T08:09:07.856Z,9.56
2022-08-17T08:10:15.823Z,13.09
2022-08-17T08:11:20.399Z,12.85
2022-08-17T08:12:28.964Z,11.95
2022-08-17T08:13:32.408Z,12.61
2022-08-17T08:14:35.082Z,7.78
2022-08-17T08:15:39.150Z,7.65
2022-08-17T08:17:56.369Z,9.67
2022-08-17T08:18:59.634Z,10.90
2022-08-17T08:21:22.464Z,14.00
2022-08-17T08:23:40.776Z,14.85
2022-08-17T08:26:18.933Z,11.45
2022-08-17T08:28:51.927Z,11.92
2022-08-17T08:29:56.390Z,8.84
2022-08-17T08:31:10.233Z,14.34
2022-08-17T08:32:20.688Z,14.28
2022-08-17T08:33:31.137Z,12.60
2022-08-17T08:35:01.135Z,9.99
2022-08-17T08:35:58.615Z,9.49
2022-08-17T08:37:16.328Z,9.53
2022-08-17T08:38:09.892Z,12.97
2022-08-17T08:39:23.201Z,14.71
2022-08-17T08:40:46.505Z,13.71
2022-08-17T08:41:57.321Z,14.91
2022-08-17T08:43:01.806Z,12.38
2022-08-17T08:44:09.281Z,10.36
2022-08-17T08:45:16.813Z,12.59
2022-08-17T08:46:21.917Z,10.95
2022-08-17T08:47:35.470Z,14.74
2022-08-17T08:50:09.493Z,13.78
2022-08-17T08:52:16.054Z,13.13
2022-08-17T08:54:48.956Z,13.16
2022-08-17T08:55:53.531Z,12.71
2022-08-17T08:57:26.979Z,14.01
2022-08-17T08:58:31.344Z,14.83
2022-08-17T08:59:34.779Z,13.96
2022-08-17T09:00:40.283Z,12.51
2022-08-17T09:01:50.878Z,17.77
2022-08-17T09:03:13.654Z,9.47
2022-08-17T09:04:25.703Z,16.01
2022-08-17T09:05:33.149Z,17.30
2022-08-17T09:06:39.615Z,13.13
2022-08-17T09:07:57.295Z,12.66
2022-08-17T09:09:08.624Z,10.59
2022-08-17T09:10:19.164Z,11.94
2022-08-17T09:11:29.765Z,14.32
2022-08-17T09:12:34.257Z,14.16
2022-08-17T09:14:56.915Z,14.86
2022-08-17T09:16:01.404Z,13.05
2022-08-17T09:17:05.477Z,11.86
2022-08-17T09:19:00.067Z,12.66
2022-08-17T09:19:22.438Z,18.47
2022-08-17T09:22:01.154Z,14.52
2022-08-17T09:24:20.798Z,12.46
2022-08-17T09:26:48.162Z,12.18
2022-08-17T09:27:56.169Z,14.16
2022-08-17T09:29:00.159Z,16.80
2022-08-17T09:30:05.243Z,16.42
2022-08-17T09:31:09.786Z,13.05
2022-08-17T09:32:23.620Z,17.71
2022-08-17T09:33:26.896Z,18.29
2022-08-17T09:34:34.941Z,19.42
2022-08-17T09:35:39.123Z,16.84
2022-08-17T09:38:19.560Z,19.87
2022-08-17T09:39:24.719Z,18.74
2022-08-17T09:40:30.326Z,18.57
2022-08-17T09:41:34.697Z,14.78
2022-08-17T09:44:23.924Z,14.90
2022-08-17T09:45:31.440Z,20.75
2022-08-17T09:46:38.936Z,20.46
2022-08-17T09:47:49.299Z,16.44
2022-08-17T09:48:53.718Z,12.09
2022-08-17T09:49:57.531Z,17.78
2022-08-17T09:52:23.430Z,15.81
2022-08-17T09:53:26.022Z,13.47
2022-08-17T09:54:45.594Z,18.75
2022-08-17T09:55:45.591Z,18.17
2022-08-17T09:57:27.802Z,18.21
2022-08-17T09:58:18.014Z,16.06
2022-08-17T09:59:39.405Z,15.96
2022-08-17T10:00:45.821Z,18.56
2022-08-17T10:01:50.493Z,15.15
2022-08-17T10:03:07.415Z,12.54
2022-08-17T10:05:38.000Z,16.51
2022-08-17T10:06:48.487Z,13.83
2022-08-17T10:07:52.969Z,13.43
2022-08-17T10:08:57.461Z,17.85
2022-08-17T10:10:01.936Z,18.73
2022-08-17T10:11:09.303Z,26.09
2022-08-17T10:12:18.818Z,19.26
2022-08-17T10:13:33.383Z,20.59
2022-08-17T10:14:44.519Z,23.08
2022-08-17T10:15:59.890Z,20.04
2022-08-17T10:18:25.638Z,13.70
2022-08-17T10:19:31.888Z,20.20
2022-08-17T10:20:48.642Z,15.28
2022-08-17T10:22:01.205Z,18.45
2022-08-17T10:24:10.606Z,14.42
2022-08-17T10:25:21.360Z,17.97
2022-08-17T10:26:20.085Z,17.01
2022-08-17T10:27:24.283Z,15.75
2022-08-17T10:28:30.071Z,16.26
2022-08-17T10:29:49.114Z,17.06
2022-08-17T10:30:41.365Z,12.91
2022-08-17T10:31:45.461Z,16.54
2022-08-17T10:32:52.532Z,12.63
2022-08-17T10:34:03.313Z,13.55
2022-08-17T10:35:13.849Z,16.64
2022-08-17T10:36:27.902Z,14.52
2022-08-17T10:38:59.923Z,16.06
2022-08-17T10:40:04.729Z,17.14
2022-08-17T10:41:21.306Z,14.81
2022-08-17T10:42:30.776Z,20.12
2022-08-17T10:43:32.247Z,16.96
2022-08-17T10:44:41.431Z,18.82
2022-08-17T10:46:21.343Z,15.51
2022-08-17T10:47:09.314Z,15.98
2022-08-17T10:48:20.209Z,15.01
2022-08-17T10:49:24.388Z,13.43
2022-08-17T10:50:46.154Z,12.86
2022-08-17T10:51:52.306Z,14.84
2022-08-17T10:52:54.975Z,18.98
2022-08-17T10:53:57.875Z,20.09
2022-08-17T10:55:02.870Z,20.42
2022-08-17T10:56:13.379Z,18.29
2022-08-17T10:57:35.903Z,14.84
2022-08-17T10:58:48.317Z,20.22
2022-08-17T10:59:51.205Z,17.81
2022-08-17T11:00:56.312Z,18.81
2022-08-17T11:02:17.246Z,19.53
2022-08-17T11:03:20.271Z,23.02
2022-08-17T11:04:36.521Z,16.76
2022-08-17T11:05:43.719Z,17.72
2022-08-17T11:06:47.246Z,22.09
2022-08-17T11:07:57.523Z,21.63
2022-08-17T11:09:05.557Z,20.87
2022-08-17T11:10:19.284Z,14.94
2022-08-17T11:11:23.752Z,14.58
2022-08-17T11:12:42.361Z,13.92
2022-08-17T11:13:46.490Z,16.13
2022-08-17T11:16:09.226Z,16.70
2022-08-17T11:17:29.145Z,16.69
2022-08-17T11:18:50.595Z,19.04
2022-08-17T11:20:07.567Z,14.93
2022-08-17T11:21:21.123Z,21.43
2022-08-17T11:22:33.555Z,19.80
2022-08-17T11:23:41.033Z,15.49
2022-08-17T11:24:44.834Z,18.63
2022-08-17T11:25:49.989Z,17.47
2022-08-17T11:27:12.379Z,15.22
2022-08-17T11:28:16.894Z,19.89
2022-08-17T11:29:21.789Z,19.54
2022-08-17T11:30:44.799Z,27.57
2022-08-17T11:31:59.101Z,18.65
2022-08-17T11:33:03.955Z,15.59
2022-08-17T11:34:19.199Z,16.58
2022-08-17T11:35:23.673Z,15.77
2022-08-17T11:36:32.941Z,17.52
2022-08-17T11:37:54.298Z,17.49
2022-08-17T11:39:15.586Z,13.76
2022-08-17T11:40:21.074Z,18.13
2022-08-17T11:41:34.390Z,19.05
2022-08-17T11:42:51.123Z,14.73
2022-08-17T11:44:12.523Z,15.06
2022-08-17T11:45:32.357Z,18.41
2022-08-17T11:46:36.613Z,20.47
2022-08-17T11:48:08.938Z,19.72
2022-08-17T11:48:53.449Z,15.68
2022-08-17T11:49:57.700Z,15.52
2022-08-17T11:52:35.682Z,16.52
2022-08-17T11:53:40.150Z,18.91
2022-08-17T11:55:56.465Z,14.01
2022-08-17T11:56:59.859Z,18.03
2022-08-17T11:58:07.302Z,14.33
2022-08-17T11:59:28.398Z,17.09
2022-08-17T12:00:42.620Z,16.11
2022-08-17T12:01:54.469Z,18.16
2022-08-17T12:05:24.505Z,14.62
2022-08-17T12:06:35.546Z,14.39
2022-08-17T12:07:43.313Z,17.72
2022-08-17T12:10:19.990Z,20.18
2022-08-17T12:12:34.791Z,16.20
2022-08-17T12:16:18.097Z,14.38
2022-08-17T12:17:39.269Z,14.45
2022-08-17T12:18:29.554Z,15.60
2022-08-17T12:19:32.557Z,13.11
2022-08-17T12:20:37.851Z,15.36
2022-08-17T12:21:42.806Z,11.63
2022-08-17T12:24:16.871Z,17.29
2022-08-17T12:25:20.918Z,15.16
2022-08-17T12:27:56.779Z,12.89
2022-08-17T12:28:43.700Z,19.05
2022-08-17T12:29:46.162Z,13.39
2022-08-17T12:30:50.129Z,16.82
2022-08-17T12:31:54.415Z,14.95
2022-08-17T12:32:56.984Z,16.45
2022-08-17T12:33:59.542Z,17.08
2022-08-17T12:35:02.543Z,16.39
2022-08-17T12:36:06.474Z,17.49
2022-08-17T12:38:32.998Z,13.35
2022-08-17T12:39:34.003Z,17.73
2022-08-17T12:40:36.433Z,12.82
2022-08-17T12:41:40.625Z,15.41
2022-08-17T12:42:45.315Z,16.49
2022-08-17T12:43:59.421Z,15.09
2022-08-17T12:45:03.118Z,15.54
2022-08-17T12:46:14.762Z,15.90
2022-08-17T12:47:19.345Z,13.46
2022-08-17T12:48:22.709Z,18.61
2022-08-17T12:49:34.911Z,18.56
2022-08-17T12:51:53.070Z,14.69
2022-08-17T12:53:01.158Z,14.03
2022-08-17T12:54:00.220Z,18.07
2022-08-17T12:55:04.295Z,18.29
2022-08-17T12:56:08.393Z,17.74
2022-08-17T12:57:15.240Z,13.82
2022-08-17T12:58:19.234Z,14.19
2022-08-17T12:59:29.895Z,17.39
2022-08-17T13:00:34.719Z,15.19
2022-08-17T13:01:39.266Z,13.34
2022-08-17T13:04:03.673Z,16.62
2022-08-17T13:05:06.801Z,15.49
2022-08-17T13:06:12.681Z,14.64
2022-08-17T13:07:17.060Z,13.98
2022-08-17T13:08:20.442Z,12.99
2022-08-17T13:09:24.136Z,20.97
2022-08-17T13:10:32.827Z,13.67
2022-08-17T13:11:34.598Z,16.74
2022-08-17T13:12:37.090Z,14.79
2022-08-17T13:13:40.631Z,16.57
2022-08-17T13:14:46.132Z,21.49
2022-08-17T13:17:06.275Z,21.16
2022-08-17T13:18:27.274Z,15.86
2022-08-17T13:19:39.829Z,15.03
2022-08-17T13:20:35.588Z,18.29
2022-08-17T13:21:38.246Z,18.75
2022-08-17T13:22:41.830Z,20.02
2022-08-17T13:23:57.404Z,19.83
2022-08-17T13:25:01.366Z,20.78
2022-08-17T13:26:04.797Z,19.42
2022-08-17T13:27:08.584Z,16.71
2022-08-17T13:28:13.157Z,20.81
2022-08-17T13:29:20.656Z,22.29
2022-08-17T13:30:28.294Z,16.16
2022-08-17T13:31:52.053Z,13.29
2022-08-17T13:32:43.941Z,15.54
2022-08-17T13:33:46.880Z,15.38
2022-08-17T13:35:12.574Z,14.09
2022-08-17T13:36:06.249Z,16.49
2022-08-17T13:37:24.696Z,16.29
2022-08-17T13:38:32.934Z,17.38
2022-08-17T13:39:35.593Z,16.02
2022-08-17T13:41:51.669Z,16.10
2022-08-17T13:42:54.653Z,14.07
2022-08-17T13:43:57.203Z,16.13
2022-08-17T13:44:59.988Z,12.22
2022-08-17T13:46:06.766Z,11.99
2022-08-17T13:47:18.302Z,14.27
2022-08-17T13:49:48.187Z,15.64
2022-08-17T13:50:47.410Z,13.30
2022-08-17T13:51:50.027Z,12.46
2022-08-17T13:52:52.617Z,14.99
2022-08-17T13:53:57.076Z,15.50
2022-08-17T13:55:00.617Z,13.38
2022-08-17T13:56:05.228Z,12.00
2022-08-17T13:57:09.723Z,16.46
2022-08-17T13:58:12.320Z,18.04
2022-08-17T13:59:16.178Z,15.28
2022-08-17T14:00:21.189Z,13.55
2022-08-17T14:01:27.730Z,15.60
2022-08-17T14:02:30.469Z,12.14
2022-08-17T14:03:33.211Z,15.46
2022-08-17T14:04:35.673Z,11.36
2022-08-17T14:05:38.360Z,9.15
2022-08-17T14:06:52.504Z,14.05
2022-08-17T14:08:55.881Z,15.67
2022-08-17T14:10:06.901Z,9.67
2022-08-17T14:11:09.514Z,10.30
2022-08-17T14:12:12.785Z,16.54
2022-08-17T14:13:15.517Z,10.88
2022-08-17T14:14:18.177Z,12.47
2022-08-17T14:15:21.739Z,11.51
2022-08-17T14:16:24.766Z,12.86
2022-08-17T14:17:27.450Z,13.87
2022-08-17T14:18:31.141Z,9.96
2022-08-17T14:19:34.490Z,15.65
2022-08-17T14:20:39.211Z,12.00
2022-08-17T14:21:42.863Z,11.42
2022-08-17T14:22:46.781Z,13.24
2022-08-17T14:23:54.903Z,15.63
2022-08-17T14:24:53.839Z,14.32
2022-08-17T14:25:56.562Z,14.83
2022-08-17T14:26:59.501Z,13.03
2022-08-17T14:28:02.195Z,13.04
2022-08-17T14:29:04.651Z,11.96
2022-08-17T14:30:09.661Z,13.95
2022-08-17T14:31:12.214Z,13.14
2022-08-17T14:32:21.797Z,12.00
2022-08-17T14:33:24.485Z,12.18
2022-08-17T14:34:27.135Z,14.45
2022-08-17T14:35:29.727Z,14.15
2022-08-17T14:36:32.802Z,11.62
2022-08-17T14:37:35.452Z,10.61
2022-08-17T14:38:38.015Z,15.18
2022-08-17T14:39:40.775Z,13.81
2022-08-17T14:40:43.813Z,12.56
2022-08-17T14:41:46.664Z,15.09
2022-08-17T14:42:49.518Z,12.64
2022-08-17T14:43:52.229Z,16.43
2022-08-17T14:44:54.890Z,18.03
2022-08-17T14:45:57.449Z,14.66
2022-08-17T14:47:00.326Z,13.71
2022-08-17T14:48:03.403Z,12.69
2022-08-17T14:49:08.504Z,14.06
2022-08-17T14:50:12.207Z,15.62
2022-08-17T14:51:16.593Z,13.64
2022-08-17T14:52:19.361Z,11.84
2022-08-17T14:53:21.921Z,11.95
2022-08-17T14:54:33.849Z,12.83
2022-08-17T14:55:28.872Z,17.11
2022-08-17T14:56:37.916Z,9.85
2022-08-17T14:57:36.834Z,11.61
2022-08-17T14:58:39.418Z,13.55
2022-08-17T14:59:42.279Z,14.32
2022-08-17T15:00:45.134Z,12.54
2022-08-17T15:01:47.733Z,12.53
2022-08-17T15:02:51.378Z,12.85
2022-08-17T15:03:53.859Z,14.20
2022-08-17T15:05:00.449Z,13.89
2022-08-17T15:06:03.319Z,12.27
2022-08-17T15:07:06.177Z,11.25
2022-08-17T15:08:08.808Z,17.13
2022-08-17T15:09:11.476Z,14.12
2022-08-17T15:10:14.349Z,10.17
2022-08-17T15:11:16.913Z,12.88
2022-08-17T15:12:20.723Z,20.05
2022-08-17T15:13:23.855Z,13.37
2022-08-17T15:14:26.430Z,12.93
2022-08-17T15:15:29.122Z,17.14
2022-08-17T15:16:32.714Z,12.28
2022-08-17T15:17:43.823Z,15.56
2022-08-17T15:18:40.000Z,14.46
2022-08-17T15:19:42.459Z,10.42
2022-08-17T15:20:45.313Z,13.36
2022-08-17T15:21:47.787Z,11.25
2022-08-17T15:22:50.496Z,10.45
2022-08-17T15:23:54.051Z,11.25
2022-08-17T15:24:56.730Z,14.47
2022-08-17T15:25:59.406Z,8.78
2022-08-17T15:27:02.071Z,10.74
2022-08-17T15:28:04.916Z,11.45
2022-08-17T15:29:07.536Z,14.85
2022-08-17T15:30:11.514Z,14.56